Time;durP1;ratioP1;P1;durP2;ratioP2;P2;SDS_P1;SDS_P2;PMS_P1;PMS_P2;Temp;Humidity;BMP_temperature;BMP_pressure;BME280_temperature;BME280_humidity;BME280_pressure;Samples;Min_cycle;Max_cycle;Signal;HPM_P1;HPM_P2
2021/03/31 00:02:23;;;;;;;7.60;4.50;;;;;;;8.47;50.79;101921.78;5028716;28;20230;-66
2021/03/31 00:04:51;;;;;;;8.57;5.33;;;;;;;8.44;50.86;101913.06;5026311;28;20226;-66
2021/03/31 00:07:17;;;;;;;9.60;5.10;;;;;;;8.40;50.95;101917.63;5020859;28;20237;-66
2021/03/31 00:09:43;;;;;;;7.83;4.93;;;;;;;8.38;51.54;101913.28;5023369;28;20214;-66
2021/03/31 00:12:10;;;;;;;5.47;4.37;;;;;;;8.35;50.97;101904.50;5025988;28;20213;-66
2021/03/31 00:14:37;;;;;;;7.50;4.23;;;;;;;8.31;51.20;101904.63;5027537;28;20225;-66
2021/03/31 00:17:03;;;;;;;6.57;4.53;;;;;;;8.26;52.09;101901.25;5029469;28;20206;-66
2021/03/31 00:19:29;;;;;;;6.37;4.17;;;;;;;8.19;51.92;101905.91;5023063;28;20202;-66
2021/03/31 00:21:56;;;;;;;13.63;5.17;;;;;;;8.07;52.22;101892.16;5028360;28;20202;-66
2021/03/31 00:24:22;;;;;;;6.43;4.30;;;;;;;7.96;52.46;101890.75;5024326;28;20285;-66
2021/03/31 00:26:48;;;;;;;5.73;4.33;;;;;;;7.91;52.68;101889.16;5023331;28;20199;-66
2021/03/31 00:29:14;;;;;;;6.40;4.40;;;;;;;7.87;53.13;101883.09;5020156;28;20210;-66
2021/03/31 00:31:40;;;;;;;8.43;5.07;;;;;;;7.85;53.51;101881.41;5020969;28;20280;-66
2021/03/31 00:34:06;;;;;;;7.73;4.77;;;;;;;7.81;53.15;101877.13;5024577;28;20838;-66
2021/03/31 00:36:34;;;;;;;8.63;4.30;;;;;;;7.79;53.36;101876.31;5027882;28;20214;-66
2021/03/31 00:39:02;;;;;;;5.40;3.90;;;;;;;7.76;53.34;101871.09;5028502;28;20664;-66
2021/03/31 00:41:28;;;;;;;5.40;4.10;;;;;;;7.72;53.88;101877.41;5021506;28;20225;-66
2021/03/31 00:44:04;;;;;;;5.40;4.43;;;;;;;7.66;53.48;101873.19;5030115;28;20229;-68
2021/03/31 00:46:30;;;;;;;5.73;3.93;;;;;;;7.61;54.01;101860.06;5018910;28;20210;-68
2021/03/31 00:48:56;;;;;;;5.57;4.50;;;;;;;7.60;54.37;101860.09;5023321;28;20233;-66
2021/03/31 00:51:23;;;;;;;7.40;4.63;;;;;;;7.56;53.78;101859.34;5020570;28;20210;-66
2021/03/31 00:53:49;;;;;;;9.40;5.53;;;;;;;7.55;53.79;101862.91;5021379;28;20255;-65
2021/03/31 00:56:16;;;;;;;7.83;5.33;;;;;;;7.54;53.87;101850.56;5023358;28;20225;-66
2021/03/31 00:58:42;;;;;;;8.07;4.83;;;;;;;7.51;54.11;101850.69;5017002;28;20203;-65
2021/03/31 01:01:09;;;;;;;9.10;5.03;;;;;;;7.49;54.39;101847.22;5021483;28;20205;-65
2021/03/31 01:03:35;;;;;;;9.33;5.07;;;;;;;7.47;54.49;101840.22;5023565;28;20230;-66
2021/03/31 01:06:01;;;;;;;9.03;5.07;;;;;;;7.43;54.22;101833.25;5014576;28;20207;-65
2021/03/31 01:08:27;;;;;;;7.30;4.97;;;;;;;7.38;53.73;101833.41;5017519;28;20226;-65
2021/03/31 01:10:56;;;;;;;10.27;4.37;;;;;;;7.35;53.70;101825.53;5025500;28;20228;-65
2021/03/31 01:13:46;;;;;;;6.53;4.27;;;;;;;7.37;53.89;101836.97;5020649;28;20280;-66
2021/03/31 01:16:21;;;;;;;8.40;4.77;;;;;;;7.37;54.03;101830.81;5025927;28;20209;-65
2021/03/31 01:18:51;;;;;;;8.20;5.57;;;;;;;7.36;53.81;101834.38;5016352;28;20202;-66
2021/03/31 01:22:04;;;;;;;8.53;5.87;;;;;;;7.32;54.39;101833.63;5020643;28;20599;-65
2021/03/31 01:25:13;;;;;;;7.93;5.10;;;;;;;7.28;54.56;101832.84;5009571;28;20222;-66
2021/03/31 01:27:54;;;;;;;10.20;6.00;;;;;;;7.23;54.74;101825.94;5009247;28;20245;-65
2021/03/31 01:30:29;;;;;;;8.93;5.67;;;;;;;7.21;54.52;101828.63;5023465;28;20277;-65
2021/03/31 01:33:25;;;;;;;9.40;5.20;;;;;;;7.20;54.58;101829.53;5019550;28;20704;-65
2021/03/31 01:35:53;;;;;;;7.80;5.33;;;;;;;7.19;54.97;101825.16;5016692;28;20211;-65
2021/03/31 01:38:23;;;;;;;7.80;5.60;;;;;;;7.20;54.51;101832.19;5019412;28;20203;-66
2021/03/31 01:40:52;;;;;;;7.50;6.03;;;;;;;7.19;54.89;101834.88;5016623;28;20211;-65
2021/03/31 01:43:20;;;;;;;8.73;5.27;;;;;;;7.18;54.77;101819.91;5017884;28;20611;-63
2021/03/31 01:45:49;;;;;;;9.07;5.80;;;;;;;7.16;55.16;101816.47;5021769;28;20205;-64
2021/03/31 01:48:17;;;;;;;9.13;5.80;;;;;;;7.15;54.72;101823.53;5012205;28;20223;-64
2021/03/31 01:50:47;;;;;;;9.30;6.13;;;;;;;7.13;55.24;101819.19;5015430;28;20641;-65
2021/03/31 01:53:17;;;;;;;7.17;5.70;;;;;;;7.10;55.58;101808.69;5015272;28;20226;-64
2021/03/31 01:55:44;;;;;;;8.40;5.57;;;;;;;7.10;55.25;101811.34;5016697;28;20218;-64
2021/03/31 01:58:10;;;;;;;7.97;6.20;;;;;;;7.08;55.30;101798.13;5016623;28;20261;-64
2021/03/31 02:00:37;;;;;;;8.37;6.73;;;;;;;7.07;55.67;101798.19;5017156;28;20203;-64
2021/03/31 02:03:04;;;;;;;8.17;5.80;;;;;;;7.05;55.86;101800.88;5023652;28;20586;-64
2021/03/31 02:05:31;;;;;;;9.57;6.17;;;;;;;7.03;55.49;101783.28;5018700;28;20213;-64
2021/03/31 02:07:58;;;;;;;7.63;5.63;;;;;;;6.99;55.40;101790.44;5010742;28;20272;-64
2021/03/31 02:10:26;;;;;;;7.57;5.17;;;;;;;6.95;55.63;101792.34;5020573;28;20256;-64
2021/03/31 02:12:54;;;;;;;9.13;5.60;;;;;;;6.90;55.71;101778.38;5014743;28;20269;-64
2021/03/31 02:15:25;;;;;;;9.60;5.57;;;;;;;6.88;55.99;101777.53;5012559;28;20206;-64
2021/03/31 02:17:52;;;;;;;7.07;5.27;;;;;;;6.86;55.90;101775.84;5016960;28;20209;-63
2021/03/31 02:20:20;;;;;;;8.77;5.93;;;;;;;6.82;56.10;101774.19;5024004;28;20206;-65
2021/03/31 02:22:47;;;;;;;10.60;5.90;;;;;;;6.78;55.53;101768.16;5023986;28;20240;-65
2021/03/31 02:25:14;;;;;;;10.57;5.57;;;;;;;6.76;55.67;101769.97;5025854;28;20210;-64
2021/03/31 02:27:41;;;;;;;9.30;5.90;;;;;;;6.75;55.68;101765.59;5027119;28;20647;-63
2021/03/31 02:30:10;;;;;;;8.73;6.10;;;;;;;6.72;55.98;101763.03;5021328;28;20667;-63
2021/03/31 02:32:36;;;;;;;8.93;5.50;;;;;;;6.67;55.88;101775.53;5022245;28;20206;-64
2021/03/31 02:35:05;;;;;;;9.17;6.43;;;;;;;6.63;56.16;101768.59;5025393;28;20202;-64
2021/03/31 02:37:32;;;;;;;7.47;5.43;;;;;;;6.57;56.36;101766.13;5026341;28;20675;-64
2021/03/31 02:40:00;;;;;;;7.37;5.83;;;;;;;6.51;56.71;101758.38;5027456;28;20207;-64
2021/03/31 02:42:26;;;;;;;13.43;5.83;;;;;;;6.48;56.83;101761.97;5011956;28;20207;-64
2021/03/31 02:44:57;;;;;;;10.20;6.23;;;;;;;6.46;57.12;101757.63;5029798;28;20213;-64
2021/03/31 02:47:26;;;;;;;8.07;5.53;;;;;;;6.46;57.46;101763.78;5025705;28;20474;-64
2021/03/31 02:49:56;;;;;;;9.60;6.17;;;;;;;6.44;57.37;101756.81;5030061;28;20667;-64
2021/03/31 02:52:24;;;;;;;9.57;6.67;;;;;;;6.43;57.36;101755.97;5023599;28;20655;-64
2021/03/31 02:54:52;;;;;;;10.33;6.13;;;;;;;6.40;57.49;101760.47;5022166;28;20237;-64
2021/03/31 02:57:19;;;;;;;7.87;6.07;;;;;;;6.38;58.15;101757.00;5025697;28;20203;-64
2021/03/31 02:59:47;;;;;;;8.50;6.43;;;;;;;6.36;58.24;101742.94;5025746;28;20203;-64
2021/03/31 03:02:16;;;;;;;7.27;5.90;;;;;;;6.33;58.48;101746.53;5024281;28;20237;-64
2021/03/31 03:04:46;;;;;;;11.93;6.47;;;;;;;6.30;58.73;101751.91;5023656;28;20223;-63
2021/03/31 03:07:12;;;;;;;9.80;6.90;;;;;;;6.30;58.58;101751.03;5019632;28;20694;-63
2021/03/31 03:09:38;;;;;;;9.13;5.93;;;;;;;6.30;58.72;101753.69;5018798;28;20203;-63
2021/03/31 03:12:07;;;;;;;7.47;6.00;;;;;;;6.27;59.16;101739.63;5025735;28;20202;-64
2021/03/31 03:14:34;;;;;;;8.27;6.23;;;;;;;6.29;59.15;101744.88;5026304;28;20588;-64
2021/03/31 03:17:00;;;;;;;9.90;6.83;;;;;;;6.29;59.14;101734.28;5026591;28;20198;-64
2021/03/31 03:19:27;;;;;;;9.70;6.30;;;;;;;6.28;58.93;101741.34;5022137;28;20694;-64
2021/03/31 03:21:54;;;;;;;7.87;6.37;;;;;;;6.29;59.09;101736.94;5028589;28;20210;-63
2021/03/31 03:24:21;;;;;;;7.77;5.93;;;;;;;6.25;58.98;101722.94;5028113;28;20222;-64
2021/03/31 03:26:47;;;;;;;10.37;6.17;;;;;;;6.24;58.87;101726.50;5019485;28;20210;-63
2021/03/31 03:29:18;;;;;;;13.60;7.17;;;;;;;6.21;59.04;101726.59;5025108;28;20226;-64
2021/03/31 03:31:44;;;;;;;8.60;5.83;;;;;;;6.19;59.12;101719.59;5025840;28;20202;-64
2021/03/31 03:34:11;;;;;;;11.43;6.70;;;;;;;6.16;59.17;101715.25;5025835;28;20278;-64
2021/03/31 03:36:41;;;;;;;8.77;6.10;;;;;;;6.14;59.41;101716.22;5021920;28;20217;-65
2021/03/31 03:39:07;;;;;;;10.03;7.03;;;;;;;6.12;59.52;101712.75;5023171;28;20203;-64
2021/03/31 03:41:34;;;;;;;11.37;6.17;;;;;;;6.07;59.14;101710.25;5023486;28;20203;-64
2021/03/31 03:44:00;;;;;;;7.77;5.63;;;;;;;6.00;59.25;101713.94;5019272;28;20261;-64
2021/03/31 03:46:31;;;;;;;7.97;4.70;;;;;;;5.92;59.41;101711.50;5016742;28;20207;-63
2021/03/31 03:48:58;;;;;;;6.63;5.10;;;;;;;5.84;59.35;101702.03;5025571;28;20222;-65
2021/03/31 03:51:25;;;;;;;8.37;6.57;;;;;;;5.81;59.74;101705.63;5029977;28;20217;-64
2021/03/31 03:53:53;;;;;;;8.20;6.10;;;;;;;5.78;59.88;101707.47;5028837;28;20240;-63
2021/03/31 03:56:19;;;;;;;7.87;5.80;;;;;;;5.75;60.24;101705.78;5025366;28;20214;-63
2021/03/31 03:58:45;;;;;;;7.63;5.73;;;;;;;5.72;59.97;101702.38;5020821;28;20213;-63
2021/03/31 04:01:11;;;;;;;6.93;5.73;;;;;;;5.69;60.47;101705.97;5032906;28;20206;-64
2021/03/31 04:03:37;;;;;;;9.57;6.50;;;;;;;5.66;59.94;101698.09;5031283;28;20226;-64
2021/03/31 04:06:04;;;;;;;10.63;6.17;;;;;;;5.63;60.60;101698.19;5027617;28;20202;-64
2021/03/31 04:08:30;;;;;;;11.50;6.33;;;;;;;5.58;60.45;101706.22;5025541;28;20292;-62
2021/03/31 04:10:59;;;;;;;10.53;6.03;;;;;;;5.54;60.76;101703.72;5029169;28;20249;-64
2021/03/31 04:13:27;;;;;;;8.27;6.03;;;;;;;5.51;61.00;101699.38;5025639;28;20327;-64
2021/03/31 04:16:01;;;;;;;11.27;6.10;;;;;;;5.49;61.08;101700.31;5023318;28;20198;-63
2021/03/31 04:18:29;;;;;;;11.33;6.10;;;;;;;5.47;61.16;101700.34;5025103;28;20584;-63
2021/03/31 04:20:58;;;;;;;8.23;5.80;;;;;;;5.46;60.99;101695.97;5031368;28;20679;-64
2021/03/31 04:23:24;;;;;;;10.27;6.00;;;;;;;5.45;61.10;101696.00;5030236;28;20276;-64
2021/03/31 04:25:51;;;;;;;8.70;6.30;;;;;;;5.43;61.25;101695.19;5025229;28;20552;-63
2021/03/31 04:28:21;;;;;;;9.33;6.37;;;;;;;5.43;61.50;101692.53;5023058;28;20233;-64
2021/03/31 04:30:48;;;;;;;8.73;6.50;;;;;;;5.42;61.25;101688.16;5026114;28;20198;-64
2021/03/31 04:33:15;;;;;;;10.10;5.93;;;;;;;5.42;61.73;101693.44;5026711;28;20719;-64
2021/03/31 04:35:41;;;;;;;9.23;6.50;;;;;;;5.41;61.99;101684.66;5031587;28;20268;-64
2021/03/31 04:38:09;;;;;;;9.30;5.97;;;;;;;5.41;61.41;101682.00;5027547;28;20201;-64
2021/03/31 04:40:46;;;;;;;12.00;6.37;;;;;;;5.40;61.90;101682.03;5025767;28;20210;-64
2021/03/31 04:43:12;;;;;;;13.20;7.67;;;;;;;5.38;61.63;101682.09;5025150;28;20718;-63
2021/03/31 04:45:39;;;;;;;13.30;6.90;;;;;;;5.38;62.09;101682.09;5020588;28;20213;-63
2021/03/31 04:48:05;;;;;;;16.73;7.17;;;;;;;5.36;61.75;101676.00;5022559;28;20233;-64
2021/03/31 04:50:32;;;;;;;8.47;6.10;;;;;;;5.34;62.26;101680.44;5027957;28;20770;-63
2021/03/31 04:52:58;;;;;;;12.77;6.33;;;;;;;5.29;62.24;101676.19;5027558;28;20229;-64
2021/03/31 04:55:24;;;;;;;8.60;5.70;;;;;;;5.24;62.31;101671.00;5023649;28;20293;-64
2021/03/31 04:57:50;;;;;;;10.77;5.97;;;;;;;5.19;62.30;101672.91;5030452;28;20626;-64
2021/03/31 05:00:17;;;;;;;8.13;6.07;;;;;;;5.16;62.01;101670.34;5021797;28;20302;-63
2021/03/31 05:02:44;;;;;;;8.17;5.77;;;;;;;5.12;62.02;101668.69;5026664;28;20210;-64
2021/03/31 05:05:11;;;;;;;8.87;6.33;;;;;;;5.12;62.58;101668.69;5027749;28;20210;-63
2021/03/31 05:07:37;;;;;;;12.70;7.47;;;;;;;5.11;61.94;101669.56;5023486;28;20696;-64
2021/03/31 05:10:03;;;;;;;13.00;7.50;;;;;;;5.11;62.24;101672.22;5027898;28;20352;-65
2021/03/31 05:12:29;;;;;;;11.30;7.40;;;;;;;5.11;62.82;101667.81;5029405;28;20577;-64
2021/03/31 05:14:56;;;;;;;10.87;6.80;;;;;;;5.12;62.95;101674.81;5031029;28;20293;-64
2021/03/31 05:17:22;;;;;;;11.80;7.67;;;;;;;5.13;62.66;101665.13;5030110;28;20296;-63
2021/03/31 05:19:49;;;;;;;13.63;7.30;;;;;;;5.14;62.74;101666.88;5023725;28;20207;-64
2021/03/31 05:22:15;;;;;;;12.20;7.07;;;;;;;5.14;63.20;101657.19;5023650;28;20583;-63
2021/03/31 05:24:41;;;;;;;10.47;6.93;;;;;;;5.15;63.21;101663.31;5020757;28;20256;-64
2021/03/31 05:27:08;;;;;;;11.80;6.97;;;;;;;5.12;63.17;101653.69;5023524;28;20202;-64
2021/03/31 05:29:34;;;;;;;11.00;6.97;;;;;;;5.13;63.67;101657.22;5019383;28;20831;-64
2021/03/31 05:32:00;;;;;;;9.57;6.43;;;;;;;5.12;63.66;101652.84;5021484;28;20203;-63
2021/03/31 05:34:26;;;;;;;11.00;5.87;;;;;;;5.12;63.85;101653.69;5022551;28;20256;-62
2021/03/31 05:36:53;;;;;;;9.40;6.80;;;;;;;5.15;64.16;101655.41;5023130;28;20268;-64
2021/03/31 05:39:19;;;;;;;10.33;6.87;;;;;;;5.17;63.77;101650.94;5028625;28;20580;-64
2021/03/31 05:41:45;;;;;;;13.80;6.10;;;;;;;5.21;63.93;101647.31;5025846;28;20213;-65
2021/03/31 05:44:12;;;;;;;10.47;7.07;;;;;;;5.26;64.53;101650.72;5020377;28;20249;-64
2021/03/31 05:46:38;;;;;;;10.63;6.77;;;;;;;5.32;64.65;101650.56;5023408;28;20206;-64
2021/03/31 05:49:04;;;;;;;23.03;8.63;;;;;;;5.39;63.96;101649.47;5019470;28;20229;-64
2021/03/31 05:51:32;;;;;;;15.37;8.10;;;;;;;5.46;64.29;101653.69;5017938;28;20681;-63
2021/03/31 05:53:59;;;;;;;11.53;7.07;;;;;;;5.51;64.33;101651.81;5024451;28;20256;-64
2021/03/31 05:56:26;;;;;;;12.37;8.47;;;;;;;5.57;64.55;101650.75;5026935;28;20663;-61
2021/03/31 05:58:53;;;;;;;15.03;8.73;;;;;;;5.63;65.11;101647.97;5028080;28;20202;-64
2021/03/31 06:01:19;;;;;;;12.00;7.50;;;;;;;5.70;65.12;101646.03;5017807;28;20564;-64
2021/03/31 06:03:46;;;;;;;12.73;8.00;;;;;;;5.77;64.90;101647.59;5028590;28;20214;-64
2021/03/31 06:06:12;;;;;;;13.50;7.20;;;;;;;5.84;65.34;101644.75;5027082;28;20693;-65
2021/03/31 06:08:38;;;;;;;12.93;7.67;;;;;;;5.91;65.50;101641.03;5024233;28;20237;-64
2021/03/31 06:11:05;;;;;;;11.90;7.97;;;;;;;6.00;65.15;101644.34;5026213;28;20198;-64
2021/03/31 06:13:51;;;;;;;12.90;7.50;;;;;;;6.08;65.72;101647.66;5028583;28;20233;-64
2021/03/31 06:16:29;;;;;;;19.47;8.93;;;;;;;6.20;65.77;101658.72;5027920;28;20199;-64
2021/03/31 06:18:55;;;;;;;13.83;7.50;;;;;;;6.31;66.05;101649.59;5024740;28;20292;-64
2021/03/31 06:21:21;;;;;;;11.10;8.07;;;;;;;6.40;65.99;101650.19;5029124;28;21286;-64
2021/03/31 06:23:53;;;;;;;12.43;7.90;;;;;;;6.50;66.03;101650.78;5020109;28;20218;-61
2021/03/31 06:26:23;;;;;;;11.90;8.03;;;;;;;6.61;66.19;101638.09;5020977;28;20210;-64
2021/03/31 06:28:59;;;;;;;16.67;9.30;;;;;;;6.74;66.13;101649.16;5022084;28;20222;-64
2021/03/31 06:31:31;;;;;;;11.23;7.80;;;;;;;6.86;66.10;101636.38;5021715;28;20205;-64
2021/03/31 06:34:01;;;;;;;13.03;8.87;;;;;;;6.98;66.09;101637.78;5019543;28;20683;-64
2021/03/31 06:36:34;;;;;;;13.30;8.83;;;;;;;7.11;65.65;101627.63;5023897;28;20653;-64
2021/03/31 06:39:15;;;;;;;13.63;8.13;;;;;;;7.23;65.33;101632.53;5024732;28;20194;-65
2021/03/31 06:41:50;;;;;;;14.07;8.27;;;;;;;7.40;65.58;101637.25;5027787;28;20206;-65
2021/03/31 06:44:20;;;;;;;12.10;7.90;;;;;;;7.52;64.98;101644.78;5015068;28;20678;-65
2021/03/31 06:46:51;;;;;;;14.87;8.30;;;;;;;7.64;64.18;101639.91;5029814;28;20578;-62
2021/03/31 06:49:17;;;;;;;13.27;8.93;;;;;;;7.79;64.18;101640.28;5025970;28;20232;-65
2021/03/31 06:51:44;;;;;;;11.87;8.50;;;;;;;7.94;64.09;101643.22;5027976;28;20202;-65
2021/03/31 06:54:15;;;;;;;14.97;9.03;;;;;;;8.12;64.35;101648.78;5028569;28;20222;-65
2021/03/31 06:56:44;;;;;;;14.77;8.80;;;;;;;8.29;64.36;101630.44;5022177;28;20664;-66
2021/03/31 06:59:10;;;;;;;14.03;8.43;;;;;;;8.48;64.33;101634.16;5022994;28;20205;-66
2021/03/31 07:01:37;;;;;;;15.07;9.80;;;;;;;8.66;64.46;101629.91;5023989;28;20206;-64
2021/03/31 07:04:05;;;;;;;13.00;8.67;;;;;;;8.85;63.58;101633.53;5026361;28;20222;-66
2021/03/31 07:06:32;;;;;;;12.73;9.27;;;;;;;9.03;63.96;101635.44;5022639;28;20264;-66
2021/03/31 07:08:59;;;;;;;12.33;8.90;;;;;;;9.23;63.76;101623.13;5021001;28;20264;-65
2021/03/31 07:11:34;;;;;;;13.97;8.63;;;;;;;9.43;62.93;101625.81;5021879;28;20199;-64
2021/03/31 07:14:02;;;;;;;15.03;9.07;;;;;;;9.61;62.25;101625.00;5022543;28;20595;-66
2021/03/31 07:16:28;;;;;;;12.77;8.30;;;;;;;9.77;61.40;101624.31;5024325;28;20206;-65
2021/03/31 07:18:56;;;;;;;12.67;8.73;;;;;;;9.94;60.42;101625.28;5021880;28;20753;-65
2021/03/31 07:21:22;;;;;;;13.93;9.03;;;;;;;10.10;59.96;101617.47;5021623;28;20753;-63
2021/03/31 07:23:50;;;;;;;15.07;8.90;;;;;;;10.28;59.91;101614.00;5019833;28;20734;-65
2021/03/31 07:26:18;;;;;;;11.83;8.40;;;;;;;10.46;59.80;101614.06;5027041;28;20301;-65
2021/03/31 07:28:44;;;;;;;14.40;9.20;;;;;;;10.64;59.89;101608.72;5030730;28;20222;-66
2021/03/31 07:31:16;;;;;;;13.30;9.20;;;;;;;10.89;59.83;101607.53;5029609;28;20220;-66
2021/03/31 07:33:43;;;;;;;16.10;9.33;;;;;;;11.16;59.88;101613.28;5031000;28;20286;-65
2021/03/31 07:36:10;;;;;;;15.67;9.57;;;;;;;11.40;59.65;101606.69;5030718;28;20810;-66
2021/03/31 07:38:37;;;;;;;14.30;9.63;;;;;;;11.62;59.02;101599.31;5033074;28;20578;-68
2021/03/31 07:41:03;;;;;;;13.53;8.97;;;;;;;11.85;58.63;101605.25;5029756;28;20214;-67
2021/03/31 07:43:34;;;;;;;20.70;9.33;;;;;;;12.08;58.62;101596.88;5111818;22;20237;-63
2021/03/31 07:46:04;;;;;;;13.03;8.83;;;;;;;12.33;57.85;101593.72;5019436;28;20210;-62
2021/03/31 07:48:32;;;;;;;14.57;9.80;;;;;;;12.56;56.61;101592.41;5021060;28;20237;-63
2021/03/31 07:51:15;;;;;;;14.53;8.93;;;;;;;12.79;55.63;101594.63;5014454;28;20660;-63
2021/03/31 07:53:43;;;;;;;17.40;9.07;;;;;;;12.99;54.94;101596.16;5016009;28;20652;-62
2021/03/31 07:56:13;;;;;;;14.03;8.87;;;;;;;13.23;54.92;101592.09;5015566;28;20203;-63
2021/03/31 07:58:40;;;;;;;13.87;10.30;;;;;;;13.46;54.55;101590.69;5015810;28;20211;-63
2021/03/31 08:01:10;;;;;;;16.23;9.47;;;;;;;13.69;53.92;101602.69;5016597;28;20221;-63
2021/03/31 08:03:39;;;;;;;17.60;9.30;;;;;;;13.93;53.96;101595.81;5015190;28;20246;-63
2021/03/31 08:06:12;;;;;;;14.80;9.33;;;;;;;14.18;53.11;101589.75;5014867;28;20664;-63
2021/03/31 08:08:55;;;;;;;16.03;8.93;;;;;;;14.42;52.23;101582.88;5015872;28;20229;-63
2021/03/31 08:11:50;;;;;;;14.50;8.87;;;;;;;14.61;51.93;101581.69;5017431;28;20264;-63
2021/03/31 08:14:19;;;;;;;15.17;10.13;;;;;;;14.84;51.65;101591.75;5016035;28;20285;-63
2021/03/31 08:16:47;;;;;;;12.67;8.93;;;;;;;15.08;51.16;101582.06;5014477;28;20198;-64
2021/03/31 08:19:17;;;;;;;18.17;10.37;;;;;;;15.29;50.49;101580.63;5014776;28;20272;-63
2021/03/31 08:21:46;;;;;;;16.53;9.30;;;;;;;15.56;50.07;101577.91;5014539;28;20210;-64
2021/03/31 08:24:13;;;;;;;14.40;8.77;;;;;;;15.82;49.61;101577.88;5014056;28;20227;-63
2021/03/31 08:26:42;;;;;;;12.33;8.80;;;;;;;16.04;48.76;101572.72;5015837;28;20244;-63
2021/03/31 08:29:10;;;;;;;16.37;9.30;;;;;;;16.26;48.04;101577.41;5018379;28;20230;-63
2021/03/31 08:31:38;;;;;;;20.03;9.23;;;;;;;16.51;47.78;101573.75;5016267;28;20301;-63
2021/03/31 08:34:05;;;;;;;14.20;9.17;;;;;;;16.75;46.91;101574.69;5018366;28;20847;-63
2021/03/31 08:36:32;;;;;;;13.00;8.60;;;;;;;17.00;46.62;101574.56;5015093;28;20210;-64
2021/03/31 08:38:59;;;;;;;14.53;9.33;;;;;;;17.21;45.86;101572.06;5016177;28;20205;-64
2021/03/31 08:41:28;;;;;;;15.83;9.57;;;;;;;17.44;45.18;101574.81;5014275;28;20675;-63
2021/03/31 08:44:13;;;;;;;13.63;9.37;;;;;;;17.65;45.18;101565.09;5019850;28;20262;-63
2021/03/31 08:46:40;;;;;;;13.40;9.60;;;;;;;17.86;44.84;101573.34;5018528;28;20204;-63
2021/03/31 08:49:06;;;;;;;16.20;9.67;;;;;;;18.06;44.72;101567.22;5022040;28;20235;-63
2021/03/31 08:51:40;;;;;;;13.73;8.90;;;;;;;18.27;44.32;101561.94;5016284;28;20211;-63
2021/03/31 08:54:06;;;;;;;13.93;9.17;;;;;;;18.43;43.82;101565.09;5017627;28;20225;-63
2021/03/31 08:56:32;;;;;;;14.87;9.53;;;;;;;18.57;43.32;101562.13;5018079;28;20216;-63
2021/03/31 08:58:58;;;;;;;14.67;9.73;;;;;;;18.73;43.06;101556.34;5016074;28;20203;-63
2021/03/31 09:01:26;;;;;;;13.47;10.03;;;;;;;18.90;43.09;101553.09;5014513;28;20227;-63
2021/03/31 09:03:52;;;;;;;15.20;9.53;;;;;;;19.09;43.26;101552.38;5017293;28;20233;-63
2021/03/31 09:06:19;;;;;;;13.83;9.60;;;;;;;19.24;42.71;101551.06;5013816;28;20211;-64
2021/03/31 09:08:47;;;;;;;18.00;11.17;;;;;;;19.38;42.10;101547.19;5014462;28;20226;-64
2021/03/31 09:11:17;;;;;;;14.90;9.87;;;;;;;19.47;41.60;101543.69;5014297;28;20559;-63
2021/03/31 09:13:43;;;;;;;16.63;10.47;;;;;;;19.56;41.58;101550.16;5013844;28;20713;-64
2021/03/31 09:16:13;;;;;;;32.23;10.93;;;;;;;19.69;41.38;101538.19;5017050;28;20205;-65
2021/03/31 09:18:40;;;;;;;14.43;10.33;;;;;;;19.84;40.89;101535.97;5019042;28;20308;-66
2021/03/31 09:21:06;;;;;;;17.20;10.63;;;;;;;19.98;40.49;101530.19;5016368;28;20635;-64
2021/03/31 09:23:32;;;;;;;14.50;10.40;;;;;;;20.09;39.88;101527.38;5021363;28;20765;-64
2021/03/31 09:26:02;;;;;;;17.33;10.17;;;;;;;20.23;39.28;101522.59;5017992;28;20205;-63
2021/03/31 09:28:29;;;;;;;14.60;9.40;;;;;;;20.36;38.53;101525.88;5020361;28;20313;-63
2021/03/31 09:30:57;;;;;;;13.00;9.10;;;;;;;20.49;38.67;101521.09;5018000;28;20318;-63
2021/03/31 09:33:31;;;;;;;13.53;9.50;;;;;;;20.63;38.61;101520.69;5017086;28;20333;-62
2021/03/31 09:36:11;;;;;;;13.37;9.73;;;;;;;20.73;37.70;101520.69;5016410;28;20687;-63
2021/03/31 09:38:37;;;;;;;11.93;9.37;;;;;;;20.83;37.08;101520.69;5020588;28;20203;-64
2021/03/31 09:41:05;;;;;;;18.23;10.77;;;;;;;20.90;37.39;101513.72;5021147;28;20735;-64
2021/03/31 09:43:32;;;;;;;17.17;10.27;;;;;;;21.03;37.29;101508.88;5020253;28;20244;-64
2021/03/31 09:45:58;;;;;;;17.33;9.67;;;;;;;21.21;37.53;101518.00;5022727;28;20294;-64
2021/03/31 09:48:25;;;;;;;15.33;9.07;;;;;;;21.28;35.53;101511.00;5019375;28;20231;-64
2021/03/31 09:50:52;;;;;;;12.87;8.73;;;;;;;21.38;34.32;101517.25;5020248;28;20213;-62
2021/03/31 09:53:22;;;;;;;8.90;7.73;;;;;;;21.44;31.53;101508.56;5016918;28;20268;-65
2021/03/31 09:55:49;;;;;;;12.87;9.10;;;;;;;21.51;31.74;101505.22;5016038;28;20289;-64
2021/03/31 09:58:21;;;;;;;13.10;9.53;;;;;;;21.66;31.53;101498.34;5013503;28;20196;-64
2021/03/31 10:00:47;;;;;;;11.30;8.33;;;;;;;21.78;31.30;101503.44;5014920;28;20209;-64
2021/03/31 10:03:13;;;;;;;12.40;7.93;;;;;;;21.91;30.07;101502.22;5012845;28;20219;-64
2021/03/31 10:05:40;;;;;;;11.23;8.30;;;;;;;21.97;29.18;101491.66;5016249;28;20206;-70
2021/03/31 10:08:10;;;;;;;10.27;7.93;;;;;;;22.02;28.63;101491.25;5016918;28;20240;-70
2021/03/31 10:10:43;;;;;;;11.10;7.72;;;;;;;22.05;28.40;101491.75;5015165;28;20208;-70
2021/03/31 10:13:10;;;;;;;11.80;7.77;;;;;;;22.15;28.29;101483.59;5016884;28;20206;-69
2021/03/31 10:15:38;;;;;;;63.63;11.35;;;;;;;22.23;27.85;101478.22;5018682;28;20217;-69
2021/03/31 10:18:05;;;;;;;16.85;8.45;;;;;;;22.32;27.73;101476.47;5017016;28;20247;-72
2021/03/31 10:20:34;;;;;;;78.57;12.88;;;;;;;22.40;27.59;101473.84;5015960;28;20213;-71
2021/03/31 10:23:00;;;;;;;11.68;8.15;;;;;;;22.47;27.74;101474.94;5015796;28;20237;-71
2021/03/31 10:25:28;;;;;;;10.95;7.05;;;;;;;22.55;27.67;101475.03;5015929;28;20217;-69
2021/03/31 10:27:55;;;;;;;11.30;7.47;;;;;;;22.61;27.80;101465.38;5016598;28;20207;-69
2021/03/31 10:30:27;;;;;;;12.00;8.38;;;;;;;22.71;27.30;101460.75;5013703;28;20242;-61
2021/03/31 10:32:54;;;;;;;10.05;7.72;;;;;;;22.90;27.11;101459.75;5017595;28;20317;-60
2021/03/31 10:35:43;;;;;;;12.57;8.23;;;;;;;23.14;26.56;101459.94;5016572;28;20230;-60
2021/03/31 10:38:20;;;;;;;10.43;8.30;;;;;;;23.32;26.42;101449.00;5016259;28;20199;-61
2021/03/31 10:41:16;;;;;;;11.10;7.85;;;;;;;23.48;26.28;101449.94;5015440;28;20214;-61
2021/03/31 10:47:01;;;;;;;9.63;7.28;;;;;;;23.62;25.52;101450.41;5014338;28;20325;-61
2021/03/31 10:49:34;;;;;;;11.85;8.02;;;;;;;23.63;25.11;101447.53;5022638;28;20225;-61
2021/03/31 10:52:03;;;;;;;8.77;7.20;;;;;;;23.64;24.63;101451.09;5014387;28;20199;-61
2021/03/31 10:54:30;;;;;;;11.23;8.50;;;;;;;23.65;24.82;101450.06;5017176;28;20222;-59
2021/03/31 10:57:05;;;;;;;11.27;8.25;;;;;;;23.68;24.76;101449.75;5017278;28;20309;-61
2021/03/31 10:59:31;;;;;;;11.30;7.43;;;;;;;23.70;24.47;101453.16;5023482;28;20201;-60
2021/03/31 11:01:57;;;;;;;10.45;7.82;;;;;;;23.71;24.57;101442.13;5017487;28;20215;-60
2021/03/31 11:04:23;;;;;;;11.38;7.72;;;;;;;23.76;24.02;101444.34;5020210;28;20284;-60
2021/03/31 11:06:50;;;;;;;9.50;7.93;;;;;;;23.77;23.67;101437.91;5018522;28;20215;-63
2021/03/31 11:09:16;;;;;;;11.93;7.60;;;;;;;23.78;23.91;101445.91;5016541;28;20319;-61
2021/03/31 11:11:42;;;;;;;12.68;8.18;;;;;;;23.84;23.82;101445.22;5016258;28;20826;-61
2021/03/31 11:14:08;;;;;;;9.27;8.27;;;;;;;23.86;23.91;101443.19;5017137;28;20279;-61
2021/03/31 11:16:34;;;;;;;9.88;8.23;;;;;;;23.88;23.89;101424.84;5019570;28;20207;-61
2021/03/31 11:19:07;;;;;;;13.18;7.20;;;;;;;23.91;22.97;101422.81;5016995;28;20234;-61
2021/03/31 11:26:59;;;;;;;15.63;8.40;;;;;;;23.99;21.78;101401.09;5023741;28;20232;-61
2021/03/31 11:29:25;;;;;;;10.55;7.15;;;;;;;24.03;21.59;101389.69;5018624;28;20309;-61
2021/03/31 11:31:51;;;;;;;10.60;7.97;;;;;;;24.09;21.33;101394.47;5017454;28;20242;-61
2021/03/31 11:34:17;;;;;;;10.98;7.90;;;;;;;24.15;21.28;101393.81;5019548;28;20233;-61
2021/03/31 11:36:43;;;;;;;9.68;7.07;;;;;;;24.23;21.60;101395.66;5018861;28;20214;-61
2021/03/31 11:39:09;;;;;;;11.40;7.95;;;;;;;24.29;21.83;101394.19;5018313;28;20202;-61
2021/03/31 11:41:37;;;;;;;9.00;7.28;;;;;;;24.32;21.78;101385.69;5017131;28;20288;-61